Time;durP1;ratioP1;P1;durP2;ratioP2;P2;SDS_P1;SDS_P2;PMS_P1;PMS_P2;Temp;Humidity;BMP_temperature;BMP_pressure;BME280_temperature;BME280_humidity;BME280_pressure;Samples;Min_cycle;Max_cycle;Signal;HPM_P1;HPM_P2
2023/02/24 00:00:30;;;;;;;27.10;25.10;;;11.10;1.00;;;;;;4841156;29;20971;-75
2023/02/24 00:03:04;;;;;;;28.03;26.03;;;11.20;1.00;;;;;;4842844;29;20518;-76
2023/02/24 00:05:34;;;;;;;25.47;23.67;;;11.10;99.90;;;;;;4843623;29;20456;-74
2023/02/24 00:08:04;;;;;;;26.20;24.20;;;11.10;99.90;;;;;;4842475;29;20521;-77
2023/02/24 00:10:36;;;;;;;26.80;24.97;;;11.10;1.00;;;;;;4859577;29;20461;-77
2023/02/24 00:13:04;;;;;;;25.07;23.27;;;11.00;1.00;;;;;;4840522;29;20555;-76
2023/02/24 00:15:34;;;;;;;26.30;24.40;;;11.00;18.00;;;;;;4841363;29;20471;-75
2023/02/24 00:18:05;;;;;;;25.77;23.73;;;11.10;1.00;;;;;;4840672;29;20453;-75
2023/02/24 00:20:35;;;;;;;26.67;24.57;;;11.10;1.00;;;;;;4839939;29;20474;-78
2023/02/24 00:23:03;;;;;;;25.33;23.30;;;11.10;99.90;;;;;;4842391;29;20911;-78
2023/02/24 00:25:33;;;;;;;27.40;24.93;;;11.10;1.00;;;;;;4841014;29;20452;-76
2023/02/24 00:28:01;;;;;;;26.77;24.77;;;11.10;99.90;;;;;;4839204;29;20480;-76
2023/02/24 00:30:31;;;;;;;25.40;23.33;;;11.10;99.90;;;;;;4830813;29;20574;-75
2023/02/24 00:33:02;;;;;;;27.07;25.27;;;11.10;99.90;;;;;;4838320;29;20499;-75
2023/02/24 00:35:30;;;;;;;25.50;23.70;;;11.10;99.90;;;;;;4837504;29;20526;-76
2023/02/24 00:37:58;;;;;;;25.63;23.83;;;11.10;99.90;;;;;;4839361;29;20550;-76
2023/02/24 00:40:29;;;;;;;26.27;24.10;;;11.10;99.90;;;;;;4843177;29;20831;-75
2023/02/24 00:42:58;;;;;;;26.23;24.23;;;11.10;99.90;;;;;;4836624;29;20488;-75
2023/02/24 00:45:29;;;;;;;26.50;24.30;;;11.00;99.90;;;;;;4841586;29;20478;-74
2023/02/24 00:47:58;;;;;;;25.20;23.30;;;11.00;21.00;;;;;;4839440;29;20488;-76
2023/02/24 00:50:26;;;;;;;25.53;23.57;;;11.00;1.00;;;;;;4841509;29;20510;-75
2023/02/24 00:52:54;;;;;;;25.50;23.47;;;11.00;99.90;;;;;;4838228;29;20503;-78
2023/02/24 00:55:23;;;;;;;24.93;23.10;;;11.00;99.90;;;;;;4844714;29;20516;-77
2023/02/24 00:57:51;;;;;;;25.97;23.90;;;11.00;1.00;;;;;;4842912;29;20488;-79
2023/02/24 01:00:22;;;;;;;25.60;23.47;;;11.00;99.90;;;;;;4843991;29;20841;-75
2023/02/24 01:02:51;;;;;;;26.40;24.40;;;11.00;1.00;;;;;;4842532;29;20489;-76
2023/02/24 01:05:20;;;;;;;26.57;24.50;;;11.00;40.20;;;;;;4838224;29;20462;-74
2023/02/24 01:07:48;;;;;;;27.57;25.20;;;11.00;1.00;;;;;;4838952;29;20492;-76
2023/02/24 01:10:17;;;;;;;24.87;23.17;;;11.00;1.00;;;;;;4845443;29;21133;-74
2023/02/24 01:12:52;;;;;;;26.70;24.67;;;11.10;1.00;;;;;;4844292;29;20743;-74
2023/02/24 01:15:23;;;;;;;26.97;25.10;;;11.10;1.00;;;;;;4844393;29;21171;-76
2023/02/24 01:17:51;;;;;;;28.17;25.80;;;11.10;99.90;;;;;;4842493;29;20456;-77
2023/02/24 01:20:19;;;;;;;28.27;25.83;;;11.10;37.80;;;;;;4842793;29;21232;-75
2023/02/24 01:22:49;;;;;;;29.00;26.40;;;11.10;99.90;;;;;;4847857;29;20883;-76
2023/02/24 01:25:19;;;;;;;28.93;26.53;;;11.10;99.90;;;;;;4844812;29;20463;-78
2023/02/24 01:27:47;;;;;;;31.13;28.47;;;11.20;1.00;;;;;;4839967;29;20532;-76
2023/02/24 01:30:17;;;;;;;30.10;27.20;;;11.10;99.90;;;;;;4843776;29;20474;-76
2023/02/24 01:32:46;;;;;;;29.17;26.90;;;11.10;1.00;;;;;;4843576;29;20561;-77
2023/02/24 01:35:16;;;;;;;29.00;26.70;;;11.20;1.00;;;;;;4841354;29;20860;-76
2023/02/24 01:37:45;;;;;;;29.90;27.27;;;11.20;99.90;;;;;;4845539;29;20532;-74
2023/02/24 01:40:19;;;;;;;29.47;26.70;;;11.20;1.00;;;;;;4845136;29;20464;-73
2023/02/24 01:42:49;;;;;;;29.97;27.47;;;11.20;99.90;;;;;;4842166;29;20479;-74
2023/02/24 01:45:21;;;;;;;29.83;27.23;;;11.20;99.90;;;;;;4846989;29;20548;-77
2023/02/24 01:47:51;;;;;;;29.67;27.17;;;11.20;1.00;;;;;;4845865;29;20472;-75
2023/02/24 01:50:24;;;;;;;29.60;27.20;;;11.20;99.90;;;;;;4847612;29;20462;-74
2023/02/24 01:52:57;;;;;;;28.97;26.50;;;11.20;99.90;;;;;;4847117;29;20496;-77
2023/02/24 01:55:31;;;;;;;28.33;25.93;;;11.20;1.00;;;;;;4841510;29;21076;-80
2023/02/24 01:58:04;;;;;;;29.90;27.40;;;11.20;99.90;;;;;;4863951;29;20501;-77
2023/02/24 02:00:36;;;;;;;29.40;27.03;;;11.20;1.00;;;;;;4850964;29;20464;-76
2023/02/24 02:03:17;;;;;;;28.53;26.33;;;11.10;99.90;;;;;;4846922;29;20497;-75
2023/02/24 02:05:47;;;;;;;28.03;25.40;;;11.00;1.00;;;;;;4843431;29;20465;-76
2023/02/24 02:08:17;;;;;;;29.63;27.07;;;11.00;39.10;;;;;;4843635;29;20553;-72
2023/02/24 02:10:46;;;;;;;27.73;25.57;;;11.10;99.90;;;;;;4845325;29;20475;-77
2023/02/24 02:13:20;;;;;;;27.00;24.80;;;11.10;26.00;;;;;;4847523;29;20494;-76
2023/02/24 02:16:05;;;;;;;29.50;27.20;;;11.10;99.90;;;;;;4844690;29;20504;-77
2023/02/24 02:18:45;;;;;;;28.30;25.97;;;11.10;99.90;;;;;;4846060;29;20468;-80
2023/02/24 02:22:12;;;;;;;28.40;26.10;;;11.10;1.00;;;;;;4848841;29;20510;-77
2023/02/24 02:24:48;;;;;;;28.17;25.87;;;11.10;1.00;;;;;;4788600;29;20481;-76
2023/02/24 02:27:33;;;;;;;28.80;26.40;;;11.20;99.90;;;;;;4833976;29;20476;-77
2023/02/24 02:30:33;;;;;;;27.70;25.33;;;11.10;33.90;;;;;;4844312;29;20495;-75
2023/02/24 02:33:33;;;;;;;29.03;26.43;;;11.10;99.90;;;;;;4839881;29;20480;-75
2023/02/24 02:36:12;;;;;;;30.20;27.63;;;11.10;99.90;;;;;;4828655;29;20494;-76
2023/02/24 02:38:52;;;;;;;28.90;26.70;;;11.10;99.90;;;;;;4844189;29;20463;-74
2023/02/24 02:41:24;;;;;;;29.93;27.47;;;11.10;99.90;;;;;;4835478;29;20479;-76
2023/02/24 02:44:02;;;;;;;31.37;28.50;;;11.10;99.90;;;;;;4844642;29;20503;-74
2023/02/24 02:46:34;;;;;;;28.87;26.37;;;11.00;99.90;;;;;;4845876;29;20493;-73
2023/02/24 02:49:12;;;;;;;29.50;27.00;;;11.00;81.20;;;;;;4845861;29;21142;-78
2023/02/24 02:51:47;;;;;;;31.00;28.30;;;11.00;99.90;;;;;;4840997;29;20490;-75
2023/02/24 02:54:21;;;;;;;29.73;27.33;;;11.00;1.00;;;;;;4847743;29;20459;-75
2023/02/24 02:56:58;;;;;;;30.37;27.47;;;11.00;99.90;;;;;;4848997;29;20484;-75
2023/02/24 02:59:29;;;;;;;30.27;27.53;;;11.00;99.90;;;;;;4843191;29;20465;-73
2023/02/24 03:02:10;;;;;;;30.97;28.37;;;11.00;30.70;;;;;;4845790;29;20479;-74
2023/02/24 03:04:42;;;;;;;31.10;28.40;;;10.90;1.00;;;;;;4849454;29;20468;-76
2023/02/24 03:07:13;;;;;;;30.80;28.40;;;10.90;99.90;;;;;;4843259;29;20477;-77
2023/02/24 03:09:45;;;;;;;30.43;27.63;;;10.90;99.90;;;;;;4844392;29;20500;-75
2023/02/24 03:12:18;;;;;;;32.30;29.30;;;10.90;99.90;;;;;;4843135;29;20513;-76
2023/02/24 03:14:50;;;;;;;30.60;27.97;;;10.90;99.90;;;;;;4847185;29;20517;-77
2023/02/24 03:17:22;;;;;;;30.30;27.60;;;11.00;1.00;;;;;;4846263;29;20453;-77
2023/02/24 03:19:59;;;;;;;31.17;28.37;;;11.00;99.90;;;;;;4849218;29;20513;-77
2023/02/24 03:22:36;;;;;;;31.60;28.70;;;10.90;99.90;;;;;;4845047;29;20513;-75
2023/02/24 03:25:05;;;;;;;28.93;26.37;;;11.00;99.90;;;;;;4846586;29;21186;-76
2023/02/24 03:27:39;;;;;;;32.20;29.20;;;10.90;68.60;;;;;;4848758;29;20963;-75
2023/02/24 03:30:12;;;;;;;31.17;28.40;;;11.00;28.90;;;;;;4844472;29;20513;-78
2023/02/24 03:32:49;;;;;;;31.30;28.60;;;10.90;1.00;;;;;;4839309;29;20496;-77
2023/02/24 03:35:23;;;;;;;31.37;28.43;;;10.90;99.90;;;;;;4846051;29;20474;-77
2023/02/24 03:37:54;;;;;;;32.00;28.90;;;10.90;99.90;;;;;;4846895;29;20513;-75
2023/02/24 03:40:27;;;;;;;31.80;28.87;;;10.90;1.00;;;;;;4843159;29;20840;-76
2023/02/24 03:43:04;;;;;;;31.90;29.07;;;10.80;1.00;;;;;;4840528;29;21010;-75
2023/02/24 03:45:36;;;;;;;32.17;29.23;;;10.80;99.90;;;;;;4841017;29;20594;-76
2023/02/24 03:48:06;;;;;;;30.33;27.70;;;10.80;1.00;;;;;;4845305;29;20768;-76
2023/02/24 03:50:36;;;;;;;30.57;27.80;;;10.80;1.00;;;;;;4840247;29;20997;-76
2023/02/24 03:53:21;;;;;;;32.63;29.80;;;10.80;99.90;;;;;;4841218;29;20495;-76
2023/02/24 03:55:59;;;;;;;30.40;27.60;;;10.80;1.00;;;;;;4844687;29;20479;-76
2023/02/24 03:58:37;;;;;;;32.03;29.10;;;10.80;91.90;;;;;;4841093;29;20476;-77
2023/02/24 04:01:13;;;;;;;32.57;29.70;;;10.90;1.00;;;;;;4839420;29;20456;-75
2023/02/24 04:03:56;;;;;;;31.17;27.90;;;10.90;99.90;;;;;;4842648;29;20950;-77
2023/02/24 04:06:33;;;;;;;31.43;28.57;;;10.90;1.00;;;;;;4845380;29;20556;-76
2023/02/24 04:09:12;;;;;;;31.73;28.67;;;10.90;1.00;;;;;;4846568;29;20529;-77
2023/02/24 04:11:46;;;;;;;32.10;29.33;;;10.90;1.00;;;;;;4844714;29;20540;-78
2023/02/24 04:14:23;;;;;;;32.23;29.23;;;10.90;1.00;;;;;;4842392;29;20466;-76
2023/02/24 04:16:59;;;;;;;34.97;31.77;;;10.90;99.90;;;;;;4840783;29;20465;-76
2023/02/24 04:19:30;;;;;;;34.73;31.63;;;10.90;83.40;;;;;;4840870;29;20472;-77
2023/02/24 04:22:00;;;;;;;35.77;32.50;;;10.90;99.90;;;;;;4841987;29;20539;-75
2023/02/24 04:24:32;;;;;;;37.87;33.40;;;10.90;1.00;;;;;;4840611;29;20971;-75
2023/02/24 04:27:03;;;;;;;37.33;33.33;;;10.90;1.00;;;;;;4842420;29;20450;-75
2023/02/24 04:29:37;;;;;;;38.23;34.17;;;10.90;49.10;;;;;;4855614;29;21320;-76
2023/02/24 04:32:09;;;;;;;38.83;34.23;;;10.90;43.20;;;;;;4840404;29;20504;-78
2023/02/24 04:34:39;;;;;;;37.50;33.60;;;10.90;99.90;;;;;;4843946;29;20474;-76
2023/02/24 04:37:07;;;;;;;40.50;34.13;;;10.90;99.90;;;;;;4841891;29;20880;-76
2023/02/24 04:39:37;;;;;;;38.77;34.53;;;10.90;99.90;;;;;;4842338;29;20559;-75
2023/02/24 04:42:06;;;;;;;36.60;32.90;;;10.90;99.90;;;;;;4837327;29;21473;-76
2023/02/24 04:44:34;;;;;;;39.60;35.40;;;10.90;1.00;;;;;;4842043;29;21570;-76
2023/02/24 04:47:03;;;;;;;37.17;33.23;;;10.90;99.90;;;;;;4840935;29;20452;-75
2023/02/24 04:49:32;;;;;;;38.20;34.20;;;10.90;99.90;;;;;;4844291;29;20929;-77
2023/02/24 04:52:01;;;;;;;41.00;36.77;;;10.80;1.00;;;;;;4843721;29;20831;-78
2023/02/24 04:54:29;;;;;;;39.50;35.30;;;10.80;99.90;;;;;;4839798;29;20822;-76
2023/02/24 04:56:58;;;;;;;38.13;34.17;;;10.80;1.00;;;;;;4843300;29;20570;-76
2023/02/24 04:59:27;;;;;;;39.27;35.00;;;10.70;99.90;;;;;;4845975;29;20501;-74
2023/02/24 05:02:00;;;;;;;40.53;36.47;;;10.70;99.90;;;;;;4843079;29;20513;-77
2023/02/24 05:04:30;;;;;;;38.73;34.67;;;10.70;97.30;;;;;;4843256;29;20556;-76
2023/02/24 05:06:59;;;;;;;39.00;34.83;;;10.80;94.40;;;;;;4843484;29;20571;-76
2023/02/24 05:09:28;;;;;;;38.80;35.03;;;10.70;64.60;;;;;;4842637;29;20469;-76
2023/02/24 05:11:59;;;;;;;41.37;37.03;;;10.70;99.90;;;;;;4845612;29;21254;-76
2023/02/24 05:14:27;;;;;;;37.43;33.67;;;10.70;99.90;;;;;;4847386;29;20463;-76
2023/02/24 05:16:59;;;;;;;40.57;35.57;;;10.70;1.00;;;;;;4842546;29;20464;-77
2023/02/24 05:22:15;;;;;;;39.40;34.43;;;10.70;1.00;;;;;;4841518;29;20499;-76
2023/02/24 05:24:46;;;;;;;39.63;35.43;;;10.60;99.90;;;;;;4845790;29;20476;-77
2023/02/24 05:27:17;;;;;;;36.53;32.73;;;10.60;90.40;;;;;;4842060;29;20883;-76
2023/02/24 05:29:45;;;;;;;40.17;35.77;;;10.60;99.90;;;;;;4842861;29;20532;-77
2023/02/24 05:32:15;;;;;;;36.40;32.70;;;10.60;99.90;;;;;;4841173;29;20481;-76
2023/02/24 05:34:43;;;;;;;37.90;33.63;;;10.60;99.90;;;;;;4842334;29;20975;-73
2023/02/24 05:37:15;;;;;;;39.40;32.80;;;10.60;1.00;;;;;;4839796;29;20526;-77
2023/02/24 05:39:43;;;;;;;37.90;34.00;;;10.60;1.00;;;;;;4837872;29;20484;-75
2023/02/24 05:42:11;;;;;;;36.53;31.83;;;10.60;1.00;;;;;;4843511;29;22288;-76
2023/02/24 05:44:41;;;;;;;36.80;32.97;;;10.60;1.00;;;;;;4841892;29;20614;-75
2023/02/24 05:47:10;;;;;;;38.07;33.97;;;10.60;60.10;;;;;;4842961;29;20543;-76
2023/02/24 05:49:38;;;;;;;38.20;33.37;;;10.60;1.00;;;;;;4854878;29;20471;-78
2023/02/24 05:52:08;;;;;;;38.23;34.23;;;10.60;99.90;;;;;;4844353;29;20492;-79
2023/02/24 05:54:39;;;;;;;40.30;32.97;;;10.50;1.00;;;;;;4848636;29;20535;-79
2023/02/24 05:57:10;;;;;;;39.00;33.27;;;10.50;78.30;;;;;;4849193;29;20511;-78
2023/02/24 05:59:39;;;;;;;35.17;31.33;;;10.50;5.40;;;;;;4838537;29;20497;-78
2023/02/24 06:02:11;;;;;;;40.60;33.17;;;10.50;99.90;;;;;;4842345;29;20484;-76
2023/02/24 06:04:45;;;;;;;36.60;32.43;;;10.50;99.90;;;;;;4845727;29;20480;-77
2023/02/24 06:07:17;;;;;;;36.43;32.40;;;10.50;1.00;;;;;;4859153;29;20471;-77
2023/02/24 06:09:48;;;;;;;40.67;35.47;;;10.60;1.00;;;;;;4848823;29;20849;-77
2023/02/24 06:12:18;;;;;;;36.93;33.03;;;10.60;1.00;;;;;;4844899;29;20487;-79
2023/02/24 06:14:46;;;;;;;41.13;36.93;;;10.60;99.90;;;;;;4845702;29;20468;-77
2023/02/24 06:17:17;;;;;;;37.60;33.50;;;10.60;1.00;;;;;;4847733;29;20491;-76
2023/02/24 06:19:48;;;;;;;38.37;34.50;;;10.60;1.00;;;;;;4843829;29;20992;-77
2023/02/24 06:22:18;;;;;;;38.10;33.27;;;10.60;99.90;;;;;;4846760;29;20479;-77
2023/02/24 06:24:48;;;;;;;37.03;33.10;;;10.50;1.00;;;;;;4844650;29;20467;-77
2023/02/24 06:27:18;;;;;;;34.73;31.57;;;10.60;17.10;;;;;;4843804;29;21274;-80
2023/02/24 06:29:48;;;;;;;39.17;35.23;;;10.60;1.00;;;;;;4838636;29;20489;-75
2023/02/24 06:32:20;;;;;;;37.90;34.30;;;10.60;99.90;;;;;;4842367;29;20500;-78
2023/02/24 06:34:48;;;;;;;38.03;33.77;;;10.50;99.90;;;;;;4841534;29;20477;-76
2023/02/24 06:37:17;;;;;;;36.83;32.93;;;10.60;99.90;;;;;;4843233;29;21085;-76
2023/02/24 06:39:45;;;;;;;40.13;35.80;;;10.60;99.90;;;;;;4843991;29;20461;-75
2023/02/24 06:42:14;;;;;;;35.00;31.30;;;10.50;99.90;;;;;;4845006;29;20480;-77
2023/02/24 06:44:42;;;;;;;36.47;32.57;;;10.60;99.90;;;;;;4844242;29;20464;-78
2023/02/24 06:47:12;;;;;;;37.63;33.93;;;10.60;99.90;;;;;;4842985;29;20475;-77
2023/02/24 06:49:42;;;;;;;35.80;32.30;;;10.50;1.00;;;;;;4843963;29;20948;-77
2023/02/24 06:52:17;;;;;;;33.53;30.13;;;10.50;1.00;;;;;;4843615;29;20975;-76
2023/02/24 06:54:48;;;;;;;36.67;33.10;;;10.50;99.90;;;;;;4846201;29;20453;-76
2023/02/24 06:57:19;;;;;;;39.37;35.57;;;10.60;51.80;;;;;;4847497;29;20465;-77
2023/02/24 06:59:47;;;;;;;39.20;35.00;;;10.60;99.90;;;;;;4843223;29;21031;-74
2023/02/24 07:02:16;;;;;;;37.67;33.77;;;10.60;99.90;;;;;;4848547;29;20485;-76
2023/02/24 07:04:46;;;;;;;36.13;32.20;;;10.60;42.20;;;;;;4842983;29;20475;-76
2023/02/24 07:07:16;;;;;;;39.20;33.23;;;10.60;99.90;;;;;;4843444;29;20486;-75
2023/02/24 07:09:44;;;;;;;38.30;34.30;;;10.60;99.90;;;;;;4847178;29;20483;-76
2023/02/24 07:12:14;;;;;;;40.83;35.30;;;10.60;99.90;;;;;;4846837;29;20501;-72
2023/02/24 07:14:42;;;;;;;36.17;32.33;;;10.70;99.90;;;;;;4844316;29;20467;-77
2023/02/24 07:17:13;;;;;;;39.40;35.03;;;10.70;1.00;;;;;;4850650;29;20469;-76
2023/02/24 07:19:42;;;;;;;42.17;37.50;;;10.70;39.80;;;;;;4845057;29;20998;-74
2023/02/24 07:22:15;;;;;;;38.33;34.50;;;10.70;1.00;;;;;;4847514;29;20866;-78
2023/02/24 07:24:45;;;;;;;38.57;34.70;;;10.80;40.30;;;;;;4847008;29;20456;-76
2023/02/24 07:27:20;;;;;;;40.17;35.40;;;10.70;99.90;;;;;;4847673;29;20564;-78
2023/02/24 07:29:50;;;;;;;39.70;33.80;;;10.70;1.00;;;;;;4847179;29;20991;-77
2023/02/24 07:32:21;;;;;;;38.77;34.93;;;10.70;99.90;;;;;;4842698;29;20532;-78
2023/02/24 07:34:49;;;;;;;36.77;32.87;;;10.70;99.90;;;;;;4847237;29;20874;-77
2023/02/24 07:37:19;;;;;;;38.87;34.90;;;10.70;99.90;;;;;;4846717;29;20464;-79
2023/02/24 07:39:47;;;;;;;37.60;33.60;;;10.70;99.90;;;;;;4845900;29;20459;-77
2023/02/24 07:42:15;;;;;;;36.20;32.63;;;10.70;99.90;;;;;;4844476;29;21170;-76
2023/02/24 07:44:45;;;;;;;36.10;32.70;;;10.70;99.90;;;;;;4846456;29;20474;-77
2023/02/24 07:47:14;;;;;;;38.20;34.10;;;10.70;99.90;;;;;;4847235;29;20583;-77
2023/02/24 07:49:44;;;;;;;39.30;35.10;;;10.70;90.70;;;;;;4845339;29;20508;-77
2023/02/24 07:52:12;;;;;;;39.20;33.77;;;10.70;99.90;;;;;;4842120;29;20488;-76
2023/02/24 07:54:43;;;;;;;35.13;31.63;;;10.70;1.00;;;;;;4845192;29;20475;-76
2023/02/24 07:57:13;;;;;;;42.67;38.07;;;10.80;99.90;;;;;;4846437;29;20839;-77
2023/02/24 07:59:45;;;;;;;35.13;32.03;;;10.70;99.90;;;;;;4859703;29;20477;-77
2023/02/24 08:02:15;;;;;;;36.07;32.63;;;10.80;99.90;;;;;;4848932;29;20560;-77
2023/02/24 08:04:48;;;;;;;35.27;31.90;;;10.80;99.90;;;;;;4846668;29;20512;-77
2023/02/24 08:07:22;;;;;;;37.23;33.13;;;10.80;30.60;;;;;;4848911;29;20523;-75
2023/02/24 08:12:42;;;;;;;35.13;31.67;;;10.80;1.00;;;;;;4846390;29;20869;-77
2023/02/24 08:15:23;;;;;;;34.97;31.27;;;10.80;1.00;;;;;;4847766;29;20468;-78
2023/02/24 08:17:53;;;;;;;34.50;31.33;;;10.80;1.00;;;;;;4847626;29;20465;-77
2023/02/24 08:20:26;;;;;;;33.90;30.77;;;10.80;99.90;;;;;;4848704;29;20456;-77
2023/02/24 08:22:55;;;;;;;33.40;30.43;;;10.90;1.00;;;;;;4847426;29;20524;-77
2023/02/24 08:25:34;;;;;;;35.43;31.50;;;10.90;44.80;;;;;;4847050;29;20462;-76
2023/02/24 08:28:05;;;;;;;35.43;31.80;;;10.90;99.90;;;;;;4847851;29;20513;-78
2023/02/24 08:30:38;;;;;;;51.70;34.47;;;11.00;1.00;;;;;;4844393;29;20472;-76
2023/02/24 08:33:09;;;;;;;36.80;32.37;;;11.00;32.50;;;;;;4847056;29;20535;-76
2023/02/24 08:35:43;;;;;;;37.67;32.67;;;11.10;99.90;;;;;;4849742;29;20545;-77
2023/02/24 08:38:14;;;;;;;32.83;29.60;;;11.10;99.90;;;;;;4846140;29;21511;-76
2023/02/24 08:40:50;;;;;;;32.13;29.13;;;11.10;99.90;;;;;;4846013;29;20499;-76
2023/02/24 08:43:31;;;;;;;34.47;31.03;;;11.10;1.00;;;;;;4842749;29;20480;-77
2023/02/24 08:46:04;;;;;;;32.57;29.27;;;11.10;99.90;;;;;;4841258;29;20464;-74
2023/02/24 08:48:37;;;;;;;31.90;29.10;;;11.10;99.90;;;;;;4847563;29;20473;-75
2023/02/24 08:51:10;;;;;;;31.23;28.53;;;11.10;99.90;;;;;;4843598;29;20472;-78
2023/02/24 08:53:40;;;;;;;31.93;29.13;;;11.10;5.30;;;;;;4843915;29;20576;-79
2023/02/24 08:56:11;;;;;;;28.80;26.50;;;11.10;99.90;;;;;;4846897;29;20971;-78
2023/02/24 08:58:45;;;;;;;31.27;28.60;;;11.10;99.90;;;;;;4849337;29;20521;-77
2023/02/24 09:01:22;;;;;;;29.63;27.10;;;11.10;99.90;;;;;;4850309;29;20446;-77
2023/02/24 09:03:54;;;;;;;30.10;27.10;;;11.00;99.90;;;;;;4849658;29;20505;-76
2023/02/24 09:06:26;;;;;;;31.93;29.07;;;11.00;99.90;;;;;;4851669;29;20453;-77
2023/02/24 09:11:42;;;;;;;30.37;27.53;;;11.10;99.90;;;;;;4858071;29;21156;-76
2023/02/24 09:14:16;;;;;;;31.87;28.87;;;11.10;99.90;;;;;;4849155;29;20477;-78
2023/02/24 09:17:02;;;;;;;29.97;27.07;;;11.10;1.00;;;;;;4846428;29;20468;-78
2023/02/24 09:22:55;;;;;;;27.53;25.23;;;11.10;1.00;;;;;;4844529;29;20492;-77
2023/02/24 09:25:39;;;;;;;29.50;27.00;;;11.20;99.90;;;;;;4843209;29;20461;-78
2023/02/24 09:28:15;;;;;;;28.40;25.50;;;11.20;22.50;;;;;;4844738;29;20468;-77
2023/02/24 09:30:53;;;;;;;28.70;25.93;;;11.10;99.90;;;;;;4844714;29;20532;-76
2023/02/24 09:33:24;;;;;;;29.07;26.67;;;11.10;99.90;;;;;;4842317;29;20573;-77
2023/02/24 09:36:08;;;;;;;29.60;26.90;;;11.10;99.90;;;;;;4843454;29;20658;-76
2023/02/24 09:41:44;;;;;;;27.80;25.30;;;11.30;1.00;;;;;;4834170;29;20572;-75
2023/02/24 09:44:28;;;;;;;26.20;24.00;;;11.40;1.00;;;;;;4847431;29;20524;-78
2023/02/24 09:47:07;;;;;;;25.20;22.97;;;11.40;1.00;;;;;;4847359;29;20509;-76
2023/02/24 09:49:49;;;;;;;26.40;24.20;;;11.50;99.00;;;;;;4849435;29;20544;-77
2023/02/24 09:52:18;;;;;;;26.03;23.80;;;11.60;1.00;;;;;;4847370;29;20495;-75
2023/02/24 09:58:14;;;;;;;25.23;23.13;;;11.90;1.00;;;;;;4845677;29;21155;-76
2023/02/24 10:00:42;;;;;;;24.47;22.30;;;12.40;99.90;;;;;;4848006;29;20460;-78
2023/02/24 10:03:40;;;;;;;24.50;22.33;;;12.60;99.90;;;;;;4850072;29;20488;-78
2023/02/24 10:06:19;;;;;;;22.80;21.30;;;12.50;99.90;;;;;;4850815;29;20954;-75
2023/02/24 10:08:58;;;;;;;23.27;21.37;;;12.20;55.00;;;;;;4851849;29;20451;-79
2023/02/24 10:11:38;;;;;;;21.20;19.40;;;12.10;59.90;;;;;;4845339;29;20523;-78
2023/02/24 10:14:18;;;;;;;21.43;19.67;;;12.10;54.80;;;;;;4844820;29;20532;-77
2023/02/24 10:17:21;;;;;;;21.90;19.87;;;12.00;40.30;;;;;;4849189;29;20471;-77
2023/02/24 10:19:40;;;;;;;19.77;18.27;;;12.10;64.30;;;;;;4847301;29;20473;-77
2023/02/24 10:22:26;;;;;;;22.10;20.57;;;12.10;34.30;;;;;;4846860;29;20460;-78
2023/02/24 10:25:09;;;;;;;21.53;19.73;;;12.10;43.80;;;;;;4845677;29;20579;-76
2023/02/24 10:27:51;;;;;;;22.07;20.10;;;12.20;97.20;;;;;;4848636;29;20460;-78
2023/02/24 10:30:39;;;;;;;21.83;19.97;;;12.10;1.00;;;;;;4847101;29;20906;-77
2023/02/24 10:33:24;;;;;;;21.53;20.03;;;12.20;17.40;;;;;;4846690;29;20508;-77
2023/02/24 10:36:09;;;;;;;20.43;18.90;;;12.30;29.30;;;;;;4846215;29;20470;-79
2023/02/24 10:38:39;;;;;;;20.93;19.33;;;12.40;14.00;;;;;;4842119;29;20470;-77
2023/02/24 10:41:10;;;;;;;21.77;19.90;;;12.30;1.00;;;;;;4847927;29;20469;-76
2023/02/24 10:43:44;;;;;;;25.00;19.90;;;12.30;5.00;;;;;;4846092;29;20493;-76
2023/02/24 10:46:24;;;;;;;22.30;19.83;;;12.20;1.00;;;;;;4848226;29;21169;-77
2023/02/24 10:49:15;;;;;;;20.30;19.00;;;12.20;1.00;;;;;;4849626;29;20513;-76
2023/02/24 10:51:50;;;;;;;19.57;18.20;;;12.10;1.00;;;;;;4846581;29;20465;-77
2023/02/24 10:54:33;;;;;;;20.70;18.90;;;12.00;1.00;;;;;;4848148;29;20483;-77
2023/02/24 10:57:17;;;;;;;19.67;18.17;;;11.90;1.00;;;;;;4845176;29;20452;-76
2023/02/24 11:03:07;;;;;;;21.40;19.80;;;11.90;17.70;;;;;;4847956;29;20581;-78
2023/02/24 11:05:42;;;;;;;20.00;18.40;;;11.90;38.50;;;;;;4846311;29;20467;-75
2023/02/24 11:08:35;;;;;;;21.93;20.17;;;11.80;54.50;;;;;;4848543;29;20468;-79
2023/02/24 11:11:18;;;;;;;23.10;21.10;;;11.80;99.90;;;;;;4849382;29;20562;-77
2023/02/24 11:19:45;;;;;;;26.83;22.20;;;11.80;99.90;;;;;;4845318;29;20535;-78
2023/02/24 11:22:18;;;;;;;24.10;22.20;;;11.80;99.90;;;;;;4844711;29;20476;-76
2023/02/24 11:24:48;;;;;;;24.83;21.90;;;11.70;99.90;;;;;;4848607;29;20468;-75
2023/02/24 11:27:18;;;;;;;25.60;23.30;;;11.70;99.90;;;;;;4843971;29;20460;-77
2023/02/24 11:30:05;;;;;;;25.93;23.53;;;11.60;99.90;;;;;;4848344;29;20460;-77
2023/02/24 11:32:48;;;;;;;24.13;21.97;;;11.60;99.90;;;;;;4844468;29;20931;-76
2023/02/24 11:35:25;;;;;;;23.33;21.47;;;11.60;99.90;;;;;;4844232;29;20496;-78
2023/02/24 11:38:01;;;;;;;24.40;22.40;;;11.70;99.90;;;;;;4845956;29;20548;-77
2023/02/24 11:40:37;;;;;;;25.83;23.33;;;11.60;99.90;;;;;;4844585;29;20480;-77
2023/02/24 11:43:12;;;;;;;25.43;23.03;;;11.60;99.90;;;;;;4843824;29;20573;-78
2023/02/24 11:45:46;;;;;;;23.60;21.50;;;11.70;99.90;;;;;;4840884;29;20460;-75
2023/02/24 11:48:18;;;;;;;23.07;20.97;;;11.70;99.90;;;;;;4846830;29;21014;-77
2023/02/24 11:50:52;;;;;;;23.80;21.80;;;11.80;99.90;;;;;;4844213;29;20497;-76
2023/02/24 11:53:32;;;;;;;25.20;22.80;;;11.80;99.90;;;;;;4840483;29;21294;-76
2023/02/24 11:56:03;;;;;;;22.03;20.10;;;11.90;99.90;;;;;;4843549;29;20468;-77
2023/02/24 11:58:39;;;;;;;26.57;24.00;;;12.00;99.90;;;;;;4846756;29;20465;-76
2023/02/24 12:01:14;;;;;;;22.93;20.97;;;12.00;99.90;;;;;;4843727;29;20468;-76
2023/02/24 12:03:50;;;;;;;23.77;21.23;;;12.10;99.90;;;;;;4843519;29;20481;-77
2023/02/24 12:06:23;;;;;;;24.43;22.23;;;12.30;99.90;;;;;;4848486;29;20464;-75
2023/02/24 12:08:58;;;;;;;25.13;22.67;;;12.50;99.90;;;;;;4862656;29;20465;-76
2023/02/24 12:11:37;;;;;;;23.63;21.57;;;12.80;99.90;;;;;;4845385;29;20472;-78
2023/02/24 12:14:17;;;;;;;24.33;22.43;;;13.00;99.90;;;;;;4842214;29;20561;-77
2023/02/24 12:16:52;;;;;;;23.80;21.60;;;13.20;11.80;;;;;;4859224;29;20463;-78
2023/02/24 12:19:25;;;;;;;23.30;21.10;;;13.30;1.00;;;;;;4845398;29;20524;-77
2023/02/24 12:22:01;;;;;;;23.97;21.80;;;13.30;1.00;;;;;;4844494;29;20464;-76
2023/02/24 12:24:34;;;;;;;23.43;21.80;;;13.30;1.00;;;;;;4843499;29;20463;-78
2023/02/24 12:27:12;;;;;;;22.47;20.90;;;13.30;1.00;;;;;;4839713;29;22854;-77
2023/02/24 12:30:05;;;;;;;22.50;20.80;;;13.50;1.00;;;;;;4844426;29;20474;-79
2023/02/24 12:33:00;;;;;;;22.10;20.13;;;13.70;1.00;;;;;;4843116;29;20479;-77
2023/02/24 12:35:38;;;;;;;21.70;19.53;;;13.40;1.00;;;;;;4842085;29;20943;-76
2023/02/24 12:38:29;;;;;;;22.27;20.30;;;13.30;1.00;;;;;;4842536;29;20532;-78
2023/02/24 12:41:16;;;;;;;22.77;20.80;;;13.20;1.00;;;;;;4844613;29;20468;-77
2023/02/24 12:43:50;;;;;;;19.03;17.73;;;13.10;1.00;;;;;;4845123;29;20482;-75
2023/02/24 12:46:24;;;;;;;20.03;18.20;;;13.20;1.00;;;;;;4844660;29;20476;-77
2023/02/24 12:49:11;;;;;;;19.40;17.80;;;13.20;1.00;;;;;;4847824;29;20462;-78
2023/02/24 12:51:47;;;;;;;19.20;18.03;;;13.10;99.90;;;;;;4859205;29;20470;-76
2023/02/24 12:54:22;;;;;;;18.40;16.80;;;12.90;99.90;;;;;;4842634;29;21033;-76
2023/02/24 12:56:59;;;;;;;19.03;17.30;;;12.80;99.90;;;;;;4856536;29;20468;-77
2023/02/24 12:59:31;;;;;;;19.70;17.80;;;12.80;99.90;;;;;;4840355;29;20551;-76
2023/02/24 13:02:05;;;;;;;17.60;16.40;;;12.80;1.00;;;;;;4846984;29;20462;-77
2023/02/24 13:04:39;;;;;;;19.03;17.77;;;12.70;99.90;;;;;;4845329;29;20461;-76
2023/02/24 13:07:30;;;;;;;19.00;17.53;;;12.80;1.00;;;;;;4848735;29;20517;-77
2023/02/24 13:10:11;;;;;;;19.10;17.60;;;12.70;1.00;;;;;;4845013;29;21021;-77
2023/02/24 13:12:49;;;;;;;18.27;17.00;;;12.80;1.00;;;;;;4847565;29;20522;-77
2023/02/24 13:15:21;;;;;;;24.60;18.30;;;12.80;1.00;;;;;;4845394;29;20543;-77
2023/02/24 13:17:51;;;;;;;19.33;17.40;;;12.70;1.00;;;;;;4850274;29;20457;-76
2023/02/24 13:20:28;;;;;;;18.13;16.47;;;12.70;1.00;;;;;;4849854;29;20510;-75
2023/02/24 13:22:57;;;;;;;19.23;17.40;;;12.70;1.00;;;;;;4851468;29;20529;-77
2023/02/24 13:25:30;;;;;;;19.47;17.93;;;12.60;1.00;;;;;;4851037;29;20460;-76
2023/02/24 13:28:03;;;;;;;17.30;16.30;;;12.70;1.00;;;;;;4849911;29;20467;-78
2023/02/24 13:30:39;;;;;;;18.10;16.60;;;12.70;1.00;;;;;;4843956;29;20468;-76